sensor_id;sensor_type;location;lat;lon;timestamp;pressure;altitude;pressure_sealevel;temperature;humidity
75656;BME280;64252;51.094;13.714;2024-01-25T00:00:25;100728.91;;;15.68;43.63
75656;BME280;64252;51.094;13.714;2024-01-25T00:02:51;100702.00;;;14.89;44.71
75656;BME280;64252;51.094;13.714;2024-01-25T00:05:16;100709.72;;;14.96;44.69
75656;BME280;64252;51.094;13.714;2024-01-25T00:07:49;100711.34;;;14.93;45.14
75656;BME280;64252;51.094;13.714;2024-01-25T00:10:17;100718.44;;;15.51;44.07
75656;BME280;64252;51.094;13.714;2024-01-25T00:12:43;100708.81;;;15.24;44.17
75656;BME280;64252;51.094;13.714;2024-01-25T00:15:10;100712.78;;;15.41;44.16
75656;BME280;64252;51.094;13.714;2024-01-25T00:17:36;100720.34;;;15.75;43.60
75656;BME280;64252;51.094;13.714;2024-01-25T00:20:05;100730.63;;;15.55;43.94
75656;BME280;64252;51.094;13.714;2024-01-25T00:22:30;100727.22;;;15.78;43.24
75656;BME280;64252;51.094;13.714;2024-01-25T00:24:57;100719.94;;;14.83;45.24
75656;BME280;64252;51.094;13.714;2024-01-25T00:27:24;100723.22;;;15.68;43.56
75656;BME280;64252;51.094;13.714;2024-01-25T00:29:49;100729.81;;;15.58;43.60
75656;BME280;64252;51.094;13.714;2024-01-25T00:32:15;100734.16;;;15.80;43.49
75656;BME280;64252;51.094;13.714;2024-01-25T00:34:41;100730.63;;;15.55;43.53
75656;BME280;64252;51.094;13.714;2024-01-25T00:37:07;100735.44;;;15.65;43.91
75656;BME280;64252;51.094;13.714;2024-01-25T00:39:33;100734.75;;;15.36;44.20
75656;BME280;64252;51.094;13.714;2024-01-25T00:42:04;100743.41;;;15.95;43.33
75656;BME280;64252;51.094;13.714;2024-01-25T00:44:31;100744.63;;;15.07;44.41
75656;BME280;64252;51.094;13.714;2024-01-25T00:46:56;100745.28;;;15.47;43.23
75656;BME280;64252;51.094;13.714;2024-01-25T00:49:22;100749.78;;;16.13;43.00
75656;BME280;64252;51.094;13.714;2024-01-25T00:51:48;100749.38;;;16.15;43.00
75656;BME280;64252;51.094;13.714;2024-01-25T00:54:15;100755.19;;;16.01;42.78
75656;BME280;64252;51.094;13.714;2024-01-25T00:56:41;100762.47;;;16.60;41.78
75656;BME280;64252;51.094;13.714;2024-01-25T00:59:07;100759.81;;;16.32;42.02
75656;BME280;64252;51.094;13.714;2024-01-25T01:01:33;100757.22;;;15.97;43.09
75656;BME280;64252;51.094;13.714;2024-01-25T01:03:59;100759.41;;;16.30;41.91
75656;BME280;64252;51.094;13.714;2024-01-25T01:06:25;100756.69;;;15.43;43.77
75656;BME280;64252;51.094;13.714;2024-01-25T01:08:52;100758.75;;;16.12;42.24
75656;BME280;64252;51.094;13.714;2024-01-25T01:11:18;100763.56;;;16.22;42.00
75656;BME280;64252;51.094;13.714;2024-01-25T01:13:45;100767.78;;;16.00;42.61
75656;BME280;64252;51.094;13.714;2024-01-25T01:16:11;100780.34;;;16.06;42.37
75656;BME280;64252;51.094;13.714;2024-01-25T01:18:40;100784.59;;;16.39;41.71
75656;BME280;64252;51.094;13.714;2024-01-25T01:21:06;100784.59;;;16.42;41.84
75656;BME280;64252;51.094;13.714;2024-01-25T01:23:32;100786.06;;;16.57;41.33
75656;BME280;64252;51.094;13.714;2024-01-25T01:25:57;100787.91;;;16.34;41.42
75656;BME280;64252;51.094;13.714;2024-01-25T01:28:23;100779.31;;;15.78;42.54
75656;BME280;64252;51.094;13.714;2024-01-25T01:30:48;100786.06;;;16.57;41.17
75656;BME280;64252;51.094;13.714;2024-01-25T01:33:14;100782.63;;;16.32;41.51
75656;BME280;64252;51.094;13.714;2024-01-25T01:35:40;100760.81;;;15.28;43.49
75656;BME280;64252;51.094;13.714;2024-01-25T01:38:06;100776.03;;;15.80;42.54
75656;BME280;64252;51.094;13.714;2024-01-25T01:40:32;100774.28;;;16.04;42.40
75656;BME280;64252;51.094;13.714;2024-01-25T01:43:01;100775.44;;;16.13;42.26
75656;BME280;64252;51.094;13.714;2024-01-25T01:45:29;100782.78;;;15.24;43.43
75656;BME280;64252;51.094;13.714;2024-01-25T01:47:55;100795.63;;;16.37;41.59
75656;BME280;64252;51.094;13.714;2024-01-25T01:50:22;100789.63;;;16.24;42.56
75656;BME280;64252;51.094;13.714;2024-01-25T01:52:49;100794.47;;;15.54;43.27
75656;BME280;64252;51.094;13.714;2024-01-25T01:55:17;100776.50;;;16.30;41.93
75656;BME280;64252;51.094;13.714;2024-01-25T01:57:44;100778.56;;;15.67;42.97
75656;BME280;64252;51.094;13.714;2024-01-25T02:00:11;100786.94;;;16.51;41.51
75656;BME280;64252;51.094;13.714;2024-01-25T02:02:40;100789.84;;;16.47;41.36
75656;BME280;64252;51.094;13.714;2024-01-25T02:05:05;100776.72;;;16.53;41.31
75656;BME280;64252;51.094;13.714;2024-01-25T02:07:32;100788.66;;;16.41;41.32
75656;BME280;64252;51.094;13.714;2024-01-25T02:09:58;100787.91;;;15.71;42.75
75656;BME280;64252;51.094;13.714;2024-01-25T02:12:23;100780.31;;;15.33;43.62
75656;BME280;64252;51.094;13.714;2024-01-25T02:14:49;100775.38;;;15.51;43.00
75656;BME280;64252;51.094;13.714;2024-01-25T02:17:15;100772.03;;;15.70;42.86
75656;BME280;64252;51.094;13.714;2024-01-25T02:19:40;100765.50;;;15.73;42.67
75656;BME280;64252;51.094;13.714;2024-01-25T02:22:06;100770.38;;;15.73;42.97
75656;BME280;64252;51.094;13.714;2024-01-25T02:24:32;100774.88;;;16.29;41.57
75656;BME280;64252;51.094;13.714;2024-01-25T02:26:58;100782.19;;;15.68;42.63
75656;BME280;64252;51.094;13.714;2024-01-25T02:29:23;100784.31;;;15.46;43.26
75656;BME280;64252;51.094;13.714;2024-01-25T02:31:49;100789.75;;;16.03;42.13
75656;BME280;64252;51.094;13.714;2024-01-25T02:34:15;100785.94;;;15.40;43.17
75656;BME280;64252;51.094;13.714;2024-01-25T02:36:40;100793.56;;;16.37;41.34
75656;BME280;64252;51.094;13.714;2024-01-25T02:39:06;100784.78;;;16.14;41.79
75656;BME280;64252;51.094;13.714;2024-01-25T02:41:32;100799.13;;;15.96;41.90
75656;BME280;64252;51.094;13.714;2024-01-25T02:44:00;100787.47;;;15.76;42.36
75656;BME280;64252;51.094;13.714;2024-01-25T02:46:26;100796.03;;;15.69;42.88
75656;BME280;64252;51.094;13.714;2024-01-25T02:48:52;100800.47;;;15.81;42.61
75656;BME280;64252;51.094;13.714;2024-01-25T02:51:17;100793.22;;;15.62;42.64
75656;BME280;64252;51.094;13.714;2024-01-25T02:53:43;100793.09;;;15.91;42.11
75656;BME280;64252;51.094;13.714;2024-01-25T02:56:08;100803.94;;;15.19;43.58
75656;BME280;64252;51.094;13.714;2024-01-25T02:58:34;100812.47;;;15.19;44.08
75656;BME280;64252;51.094;13.714;2024-01-25T03:01:00;100812.56;;;16.54;41.31
75656;BME280;64252;51.094;13.714;2024-01-25T03:03:25;100805.59;;;14.88;44.27
75656;BME280;64252;51.094;13.714;2024-01-25T03:05:51;100817.53;;;15.77;42.86
75656;BME280;64252;51.094;13.714;2024-01-25T03:08:17;100808.75;;;15.33;43.51
75656;BME280;64252;51.094;13.714;2024-01-25T03:10:44;100829.88;;;15.53;43.16
75656;BME280;64252;51.094;13.714;2024-01-25T03:13:09;100830.31;;;16.21;41.79
75656;BME280;64252;51.094;13.714;2024-01-25T03:15:35;100820.94;;;15.44;42.82
75656;BME280;64252;51.094;13.714;2024-01-25T03:18:00;100823.31;;;15.49;43.25
75656;BME280;64252;51.094;13.714;2024-01-25T03:20:26;100822.53;;;15.56;42.66
75656;BME280;64252;51.094;13.714;2024-01-25T03:22:52;100830.31;;;15.34;43.32
75656;BME280;64252;51.094;13.714;2024-01-25T03:25:18;100820.13;;;15.44;43.21
75656;BME280;64252;51.094;13.714;2024-01-25T03:27:43;100827.47;;;15.23;43.67
75656;BME280;64252;51.094;13.714;2024-01-25T03:30:09;100821.69;;;15.62;43.04
75656;BME280;64252;51.094;13.714;2024-01-25T03:32:35;100827.75;;;15.71;42.54
75656;BME280;64252;51.094;13.714;2024-01-25T03:35:01;100825.84;;;15.26;43.28
75656;BME280;64252;51.094;13.714;2024-01-25T03:37:27;100822.28;;;16.02;41.78
75656;BME280;64252;51.094;13.714;2024-01-25T03:39:53;100830.75;;;15.08;43.67
75656;BME280;64252;51.094;13.714;2024-01-25T03:42:18;100848.56;;;15.47;42.67
75656;BME280;64252;51.094;13.714;2024-01-25T03:44:44;100833.63;;;14.97;43.16
75656;BME280;64252;51.094;13.714;2024-01-25T03:47:11;100836.31;;;15.71;42.23
75656;BME280;64252;51.094;13.714;2024-01-25T03:49:37;100838.00;;;15.37;42.60
75656;BME280;64252;51.094;13.714;2024-01-25T03:52:04;100840.03;;;15.36;42.83
75656;BME280;64252;51.094;13.714;2024-01-25T03:54:30;100835.63;;;15.07;43.35
75656;BME280;64252;51.094;13.714;2024-01-25T03:56:56;100839.72;;;15.10;43.58
75656;BME280;64252;51.094;13.714;2024-01-25T03:59:21;100832.81;;;15.04;43.42
75656;BME280;64252;51.094;13.714;2024-01-25T04:01:47;100825.78;;;15.47;42.40
75656;BME280;64252;51.094;13.714;2024-01-25T04:04:14;100827.53;;;14.88;44.01
75656;BME280;64252;51.094;13.714;2024-01-25T04:06:43;100826.28;;;15.14;43.10
75656;BME280;64252;51.094;13.714;2024-01-25T04:09:10;100821.03;;;14.94;43.52
75656;BME280;64252;51.094;13.714;2024-01-25T04:11:36;100828.66;;;16.27;41.30
75656;BME280;64252;51.094;13.714;2024-01-25T04:14:03;100834.84;;;14.92;43.37
75656;BME280;64252;51.094;13.714;2024-01-25T04:16:29;100828.25;;;15.42;42.72
75656;BME280;64252;51.094;13.714;2024-01-25T04:18:54;100828.22;;;15.45;42.47
75656;BME280;64252;51.094;13.714;2024-01-25T04:21:20;100823.88;;;14.84;43.58
75656;BME280;64252;51.094;13.714;2024-01-25T04:23:46;100834.78;;;15.21;43.18
75656;BME280;64252;51.094;13.714;2024-01-25T04:26:11;100833.63;;;14.65;43.95
75656;BME280;64252;51.094;13.714;2024-01-25T04:28:37;100842.13;;;15.25;43.34
75656;BME280;64252;51.094;13.714;2024-01-25T04:31:03;100831.59;;;14.90;43.67
75656;BME280;64252;51.094;13.714;2024-01-25T04:33:29;100834.75;;;15.42;42.99
75656;BME280;64252;51.094;13.714;2024-01-25T04:35:55;100839.66;;;15.27;43.10
75656;BME280;64252;51.094;13.714;2024-01-25T04:38:21;100836.66;;;15.80;42.07
75656;BME280;64252;51.094;13.714;2024-01-25T04:40:47;100848.25;;;14.74;43.52
75656;BME280;64252;51.094;13.714;2024-01-25T04:43:13;100841.25;;;15.53;42.65
75656;BME280;64252;51.094;13.714;2024-01-25T04:45:39;100836.44;;;15.18;43.32
75656;BME280;64252;51.094;13.714;2024-01-25T04:48:06;100851.91;;;14.46;44.21
75656;BME280;64252;51.094;13.714;2024-01-25T04:50:32;100845.03;;;14.97;43.81
75656;BME280;64252;51.094;13.714;2024-01-25T04:52:58;100841.38;;;14.54;44.37
75656;BME280;64252;51.094;13.714;2024-01-25T04:55:23;100839.72;;;14.85;43.40
75656;BME280;64252;51.094;13.714;2024-01-25T04:57:49;100851.50;;;14.44;44.31
75656;BME280;64252;51.094;13.714;2024-01-25T05:00:21;100847.75;;;15.57;42.58
75656;BME280;64252;51.094;13.714;2024-01-25T05:02:48;100857.56;;;15.14;42.88
75656;BME280;64252;51.094;13.714;2024-01-25T05:05:14;100851.78;;;15.49;42.97
75656;BME280;64252;51.094;13.714;2024-01-25T05:07:41;100856.72;;;15.27;43.09
75656;BME280;64252;51.094;13.714;2024-01-25T05:10:07;100859.19;;;15.29;42.82
75656;BME280;64252;51.094;13.714;2024-01-25T05:12:33;100855.94;;;15.02;43.21
75656;BME280;64252;51.094;13.714;2024-01-25T05:14:59;100857.59;;;15.10;43.12
75656;BME280;64252;51.094;13.714;2024-01-25T05:17:25;100851.91;;;14.85;43.76
75656;BME280;64252;51.094;13.714;2024-01-25T05:19:50;100868.91;;;14.25;44.34
75656;BME280;64252;51.094;13.714;2024-01-25T05:22:16;100863.59;;;15.41;42.71
75656;BME280;64252;51.094;13.714;2024-01-25T05:24:42;100873.38;;;15.57;42.47
75656;BME280;64252;51.094;13.714;2024-01-25T05:27:08;100874.63;;;14.43;44.46
75656;BME280;64252;51.094;13.714;2024-01-25T05:29:33;100880.34;;;14.57;44.12
75656;BME280;64252;51.094;13.714;2024-01-25T05:31:59;100881.97;;;14.55;44.52
75656;BME280;64252;51.094;13.714;2024-01-25T05:34:25;100883.19;;;14.64;44.13
75656;BME280;64252;51.094;13.714;2024-01-25T05:36:51;100870.59;;;14.93;43.31
75656;BME280;64252;51.094;13.714;2024-01-25T05:39:16;100887.28;;;14.91;43.34
75656;BME280;64252;51.094;13.714;2024-01-25T05:41:42;100885.19;;;14.60;43.96
75656;BME280;64252;51.094;13.714;2024-01-25T05:44:12;100886.06;;;14.78;43.59
75656;BME280;64252;51.094;13.714;2024-01-25T05:46:38;100891.72;;;14.96;43.19
75656;BME280;64252;51.094;13.714;2024-01-25T05:49:03;100911.09;;;14.23;44.22
75656;BME280;64252;51.094;13.714;2024-01-25T05:51:29;100911.22;;;14.94;43.11
75656;BME280;64252;51.094;13.714;2024-01-25T05:53:55;100910.41;;;15.15;42.79
75656;BME280;64252;51.094;13.714;2024-01-25T05:56:21;100924.63;;;15.22;42.39
75656;BME280;64252;51.094;13.714;2024-01-25T05:58:47;100912.03;;;15.16;42.58
75656;BME280;64252;51.094;13.714;2024-01-25T06:01:13;100934.38;;;15.14;42.49
75656;BME280;64252;51.094;13.714;2024-01-25T06:03:38;100937.63;;;14.94;42.96
75656;BME280;64252;51.094;13.714;2024-01-25T06:06:05;100933.94;;;15.40;42.65
75656;BME280;64252;51.094;13.714;2024-01-25T06:08:33;100946.16;;;14.77;43.35
75656;BME280;64252;51.094;13.714;2024-01-25T06:10:59;100940.47;;;15.44;42.52
75656;BME280;64252;51.094;13.714;2024-01-25T06:13:25;100954.28;;;15.28;42.65
75656;BME280;64252;51.094;13.714;2024-01-25T06:15:50;100948.19;;;14.90;43.45
75656;BME280;64252;51.094;13.714;2024-01-25T06:18:16;100942.53;;;15.01;43.39
75656;BME280;64252;51.094;13.714;2024-01-25T06:20:42;100942.13;;;14.92;43.23
75656;BME280;64252;51.094;13.714;2024-01-25T06:23:09;100942.41;;;14.41;44.23
75656;BME280;64252;51.094;13.714;2024-01-25T06:25:35;100940.34;;;14.31;45.08
75656;BME280;64252;51.094;13.714;2024-01-25T06:28:02;100942.88;;;14.54;43.93
75656;BME280;64252;51.094;13.714;2024-01-25T06:30:29;100949.16;;;14.01;45.14
75656;BME280;64252;51.094;13.714;2024-01-25T06:32:55;100949.75;;;14.53;43.90
75656;BME280;64252;51.094;13.714;2024-01-25T06:35:21;100955.88;;;14.62;44.42
75656;BME280;64252;51.094;13.714;2024-01-25T06:37:47;100949.81;;;14.77;43.80
75656;BME280;64252;51.094;13.714;2024-01-25T06:40:12;100956.66;;;14.48;43.50
75656;BME280;64252;51.094;13.714;2024-01-25T06:42:38;100946.03;;;14.31;43.80
75656;BME280;64252;51.094;13.714;2024-01-25T06:45:04;100956.84;;;14.00;44.54
75656;BME280;64252;51.094;13.714;2024-01-25T06:47:30;100963.06;;;14.31;44.19
75656;BME280;64252;51.094;13.714;2024-01-25T06:49:55;100965.34;;;13.93;44.75
75656;BME280;64252;51.094;13.714;2024-01-25T06:52:21;100980.28;;;14.84;43.16
75656;BME280;64252;51.094;13.714;2024-01-25T06:54:46;100990.78;;;14.69;43.17
75656;BME280;64252;51.094;13.714;2024-01-25T06:57:12;100982.59;;;14.39;43.73
75656;BME280;64252;51.094;13.714;2024-01-25T06:59:39;100984.09;;;14.16;43.81
75656;BME280;64252;51.094;13.714;2024-01-25T07:02:05;100993.31;;;15.10;42.78
75656;BME280;64252;51.094;13.714;2024-01-25T07:04:31;101002.19;;;14.73;43.09
75656;BME280;64252;51.094;13.714;2024-01-25T07:06:58;101001.03;;;15.16;42.09
75656;BME280;64252;51.094;13.714;2024-01-25T07:09:26;101010.38;;;15.31;41.88
75656;BME280;64252;51.094;13.714;2024-01-25T07:11:52;101008.31;;;14.78;42.78
75656;BME280;64252;51.094;13.714;2024-01-25T07:14:17;101018.41;;;14.58;43.30
75656;BME280;64252;51.094;13.714;2024-01-25T07:16:43;101020.16;;;14.04;43.89
75656;BME280;64252;51.094;13.714;2024-01-25T07:19:08;101005.38;;;14.50;43.47
75656;BME280;64252;51.094;13.714;2024-01-25T07:21:34;101020.06;;;14.73;42.08
75656;BME280;64252;51.094;13.714;2024-01-25T07:24:03;101010.09;;;14.21;43.38
75656;BME280;64252;51.094;13.714;2024-01-25T07:26:32;101005.13;;;14.00;43.40
75656;BME280;64252;51.094;13.714;2024-01-25T07:28:57;101009.97;;;15.18;41.86
75656;BME280;64252;51.094;13.714;2024-01-25T07:31:25;101010.31;;;14.67;42.64
75656;BME280;64252;51.094;13.714;2024-01-25T07:33:52;101024.34;;;14.32;43.45
75656;BME280;64252;51.094;13.714;2024-01-25T07:36:17;101031.22;;;14.24;43.01
75656;BME280;64252;51.094;13.714;2024-01-25T07:38:45;101034.16;;;14.38;43.07
75656;BME280;64252;51.094;13.714;2024-01-25T07:41:15;101033.81;;;14.54;43.05
75656;BME280;64252;51.094;13.714;2024-01-25T07:43:41;101028.22;;;14.92;42.21
75656;BME280;64252;51.094;13.714;2024-01-25T07:46:07;101035.97;;;14.99;41.76
75656;BME280;64252;51.094;13.714;2024-01-25T07:48:33;101042.03;;;14.90;42.55
75656;BME280;64252;51.094;13.714;2024-01-25T07:50:58;101047.78;;;15.19;41.68
75656;BME280;64252;51.094;13.714;2024-01-25T07:53:24;101036.75;;;14.82;42.30
75656;BME280;64252;51.094;13.714;2024-01-25T07:55:50;101038.03;;;15.27;42.11
75656;BME280;64252;51.094;13.714;2024-01-25T07:58:15;101054.97;;;14.70;42.29
75656;BME280;64252;51.094;13.714;2024-01-25T08:00:41;101053.22;;;14.41;43.15
75656;BME280;64252;51.094;13.714;2024-01-25T08:03:08;101056.47;;;14.36;43.19
75656;BME280;64252;51.094;13.714;2024-01-25T08:05:34;101037.13;;;14.77;42.26
75656;BME280;64252;51.094;13.714;2024-01-25T08:08:00;101048.16;;;15.07;41.68
75656;BME280;64252;51.094;13.714;2024-01-25T08:10:27;101047.06;;;14.32;42.80
75656;BME280;64252;51.094;13.714;2024-01-25T08:12:52;101042.56;;;14.17;42.73
75656;BME280;64252;51.094;13.714;2024-01-25T08:15:19;101048.59;;;15.37;41.51
75656;BME280;64252;51.094;13.714;2024-01-25T08:17:44;101058.59;;;14.57;42.13
75656;BME280;64252;51.094;13.714;2024-01-25T08:20:10;101058.31;;;15.08;41.71
75656;BME280;64252;51.094;13.714;2024-01-25T08:22:40;101066.47;;;15.06;41.48
75656;BME280;64252;51.094;13.714;2024-01-25T08:25:06;101060.75;;;14.91;41.72
75656;BME280;64252;51.094;13.714;2024-01-25T08:27:32;101061.59;;;15.31;41.42
75656;BME280;64252;51.094;13.714;2024-01-25T08:29:58;101067.69;;;15.22;41.37
75656;BME280;64252;51.094;13.714;2024-01-25T08:32:24;101073.66;;;14.68;42.94
75656;BME280;64252;51.094;13.714;2024-01-25T08:34:50;101070.97;;;15.28;42.00
75656;BME280;64252;51.094;13.714;2024-01-25T08:37:15;101067.75;;;15.51;41.29
75656;BME280;64252;51.094;13.714;2024-01-25T08:39:41;101075.81;;;15.31;41.18
75656;BME280;64252;51.094;13.714;2024-01-25T08:42:09;101086.81;;;15.50;40.98
75656;BME280;64252;51.094;13.714;2024-01-25T08:44:38;101084.75;;;15.26;41.63
75656;BME280;64252;51.094;13.714;2024-01-25T08:47:04;101075.81;;;15.10;42.59
75656;BME280;64252;51.094;13.714;2024-01-25T08:49:30;101082.78;;;15.94;41.38
75656;BME280;64252;51.094;13.714;2024-01-25T08:51:55;101098.13;;;15.04;42.93
75656;BME280;64252;51.094;13.714;2024-01-25T08:54:21;101095.81;;;15.95;41.27
75656;BME280;64252;51.094;13.714;2024-01-25T08:56:46;101105.38;;;14.73;43.50
75656;BME280;64252;51.094;13.714;2024-01-25T08:59:12;101096.53;;;15.21;42.66
75656;BME280;64252;51.094;13.714;2024-01-25T09:01:38;101100.28;;;15.85;41.97
75656;BME280;64252;51.094;13.714;2024-01-25T09:04:03;101104.63;;;14.98;43.36
75656;BME280;64252;51.094;13.714;2024-01-25T09:06:29;101086.78;;;15.22;42.72
75656;BME280;64252;51.094;13.714;2024-01-25T09:08:56;101104.66;;;15.12;43.38
75656;BME280;64252;51.094;13.714;2024-01-25T09:11:22;101099.03;;;15.97;42.10
75656;BME280;64252;51.094;13.714;2024-01-25T09:13:48;101095.81;;;15.66;42.39
75656;BME280;64252;51.094;13.714;2024-01-25T09:16:15;101090.84;;;15.14;43.35
75656;BME280;64252;51.094;13.714;2024-01-25T09:18:41;101099.84;;;15.44;42.44
75656;BME280;64252;51.094;13.714;2024-01-25T09:21:07;101097.44;;;15.96;41.67
75656;BME280;64252;51.094;13.714;2024-01-25T09:23:32;101098.16;;;15.22;43.08
75656;BME280;64252;51.094;13.714;2024-01-25T09:25:58;101107.09;;;15.10;43.09
75656;BME280;64252;51.094;13.714;2024-01-25T09:28:24;101096.97;;;15.23;43.02
75656;BME280;64252;51.094;13.714;2024-01-25T09:30:49;101106.28;;;15.09;43.25
75656;BME280;64252;51.094;13.714;2024-01-25T09:33:15;101109.94;;;15.06;43.32
75656;BME280;64252;51.094;13.714;2024-01-25T09:35:41;101119.66;;;14.94;43.78
75656;BME280;64252;51.094;13.714;2024-01-25T09:38:06;101119.41;;;15.56;42.80
75656;BME280;64252;51.094;13.714;2024-01-25T09:40:32;101129.88;;;16.55;40.63
75656;BME280;64252;51.094;13.714;2024-01-25T09:42:59;101128.25;;;15.16;43.66
75656;BME280;64252;51.094;13.714;2024-01-25T09:45:24;101123.88;;;15.71;42.26
75656;BME280;64252;51.094;13.714;2024-01-25T09:47:50;101135.22;;;15.40;43.00
75656;BME280;64252;51.094;13.714;2024-01-25T09:50:16;101137.22;;;15.32;43.31
75656;BME280;64252;51.094;13.714;2024-01-25T09:55:32;101155.94;;;16.64;41.00
75656;BME280;64252;51.094;13.714;2024-01-25T09:58:04;101150.69;;;16.20;41.08
75656;BME280;64252;51.094;13.714;2024-01-25T10:00:33;101157.47;;;16.93;39.83
75656;BME280;64252;51.094;13.714;2024-01-25T10:02:59;101164.84;;;15.28;42.66
75656;BME280;64252;51.094;13.714;2024-01-25T10:05:24;101165.19;;;15.05;43.13
75656;BME280;64252;51.094;13.714;2024-01-25T10:07:50;101163.94;;;14.96;43.35
75656;BME280;64252;51.094;13.714;2024-01-25T10:10:16;101177.44;;;15.20;43.03
75656;BME280;64252;51.094;13.714;2024-01-25T10:12:42;101174.22;;;15.35;42.50
75656;BME280;64252;51.094;13.714;2024-01-25T10:15:09;101173.00;;;15.33;42.42
75656;BME280;64252;51.094;13.714;2024-01-25T10:17:34;101179.63;;;15.72;41.65
75656;BME280;64252;51.094;13.714;2024-01-25T10:20:00;101174.75;;;15.98;40.77
75656;BME280;64252;51.094;13.714;2024-01-25T10:22:26;101184.91;;;15.67;41.39
75656;BME280;64252;51.094;13.714;2024-01-25T10:24:52;101191.56;;;14.91;42.26
75656;BME280;64252;51.094;13.714;2024-01-25T10:27:19;101192.66;;;15.98;41.62
75656;BME280;64252;51.094;13.714;2024-01-25T10:29:45;101200.41;;;14.79;43.31
75656;BME280;64252;51.094;13.714;2024-01-25T10:32:12;101185.31;;;16.11;41.57
75656;BME280;64252;51.094;13.714;2024-01-25T10:34:38;101206.47;;;15.71;41.72
75656;BME280;64252;51.094;13.714;2024-01-25T10:37:07;101191.81;;;15.84;41.39
75656;BME280;64252;51.094;13.714;2024-01-25T10:39:33;101166.53;;;15.40;42.37
75656;BME280;64252;51.094;13.714;2024-01-25T10:42:00;101172.19;;;15.32;42.43
75656;BME280;64252;51.094;13.714;2024-01-25T10:44:26;101166.41;;;15.08;43.11
75656;BME280;64252;51.094;13.714;2024-01-25T10:46:52;101153.91;;;16.54;40.47
75656;BME280;64252;51.094;13.714;2024-01-25T10:49:20;101163.81;;;14.67;42.38
75656;BME280;64252;51.094;13.714;2024-01-25T10:51:46;101154.72;;;15.34;41.81
75656;BME280;64252;51.094;13.714;2024-01-25T10:54:13;101158.78;;;15.33;41.44
75656;BME280;64252;51.094;13.714;2024-01-25T10:56:44;101174.94;;;15.08;42.14
75656;BME280;64252;51.094;13.714;2024-01-25T10:59:13;101178.41;;;15.84;41.19
75656;BME280;64252;51.094;13.714;2024-01-25T11:01:45;101170.28;;;16.04;41.06
75656;BME280;64252;51.094;13.714;2024-01-25T11:04:18;101173.84;;;14.50;42.54
75656;BME280;64252;51.094;13.714;2024-01-25T11:06:45;101175.56;;;15.91;40.95
75656;BME280;64252;51.094;13.714;2024-01-25T11:09:32;101182.25;;;15.05;42.57
75656;BME280;64252;51.094;13.714;2024-01-25T11:11:59;101185.16;;;15.16;42.54
75656;BME280;64252;51.094;13.714;2024-01-25T11:14:25;101172.31;;;15.86;41.93
75656;BME280;64252;51.094;13.714;2024-01-25T11:16:51;101165.78;;;15.74;42.03
75656;BME280;64252;51.094;13.714;2024-01-25T11:19:21;101173.94;;;15.87;41.82
75656;BME280;64252;51.094;13.714;2024-01-25T11:21:52;101157.63;;;16.33;41.01
75656;BME280;64252;51.094;13.714;2024-01-25T11:24:24;101165.81;;;16.10;40.80
75656;BME280;64252;51.094;13.714;2024-01-25T11:26:55;101163.31;;;15.55;41.55
75656;BME280;64252;51.094;13.714;2024-01-25T11:29:21;101175.97;;;15.75;41.94
75656;BME280;64252;51.094;13.714;2024-01-25T11:31:49;101163.72;;;15.64;42.56
75656;BME280;64252;51.094;13.714;2024-01-25T11:34:16;101164.16;;;15.73;41.97
75656;BME280;64252;51.094;13.714;2024-01-25T11:36:44;101173.09;;;15.58;42.00
75656;BME280;64252;51.094;13.714;2024-01-25T11:39:11;101158.47;;;15.95;41.45
75656;BME280;64252;51.094;13.714;2024-01-25T11:41:37;101158.47;;;16.09;41.80
75656;BME280;64252;51.094;13.714;2024-01-25T11:44:03;101171.47;;;15.92;41.44
75656;BME280;64252;51.094;13.714;2024-01-25T11:46:30;101169.00;;;16.65;40.40
75656;BME280;64252;51.094;13.714;2024-01-25T11:48:58;101172.31;;;15.89;42.10
75656;BME280;64252;51.094;13.714;2024-01-25T11:51:24;101161.25;;;16.58;40.52
75656;BME280;64252;51.094;13.714;2024-01-25T11:53:50;101174.31;;;16.42;40.57
75656;BME280;64252;51.094;13.714;2024-01-25T11:56:31;101166.56;;;16.42;40.21
75656;BME280;64252;51.094;13.714;2024-01-25T11:58:57;101158.88;;;16.14;40.53
75656;BME280;64252;51.094;13.714;2024-01-25T12:01:27;101164.97;;;15.99;40.62
75656;BME280;64252;51.094;13.714;2024-01-25T12:03:53;101165.69;;;16.81;39.26
75656;BME280;64252;51.094;13.714;2024-01-25T12:06:19;101160.38;;;16.79;38.64
75656;BME280;64252;51.094;13.714;2024-01-25T12:08:45;101151.94;;;16.26;39.26
75656;BME280;64252;51.094;13.714;2024-01-25T12:11:14;101160.91;;;16.07;39.57
75656;BME280;64252;51.094;13.714;2024-01-25T12:13:42;101151.97;;;15.91;40.11
75656;BME280;64252;51.094;13.714;2024-01-25T12:16:11;101163.75;;;15.89;40.21
75656;BME280;64252;51.094;13.714;2024-01-25T12:18:39;101169.00;;;16.44;39.60
75656;BME280;64252;51.094;13.714;2024-01-25T12:21:05;101162.66;;;17.23;38.08
75656;BME280;64252;51.094;13.714;2024-01-25T12:23:35;101169.72;;;16.87;38.31
75656;BME280;64252;51.094;13.714;2024-01-25T12:26:10;101161.31;;;17.42;37.79
75656;BME280;64252;51.094;13.714;2024-01-25T12:28:37;101162.19;;;17.90;37.58
75656;BME280;64252;51.094;13.714;2024-01-25T12:31:04;101162.72;;;17.02;39.09
75656;BME280;64252;51.094;13.714;2024-01-25T12:33:30;101151.88;;;16.51;39.90
75656;BME280;64252;51.094;13.714;2024-01-25T12:35:57;101160.50;;;16.19;40.72
75656;BME280;64252;51.094;13.714;2024-01-25T12:38:24;101129.97;;;16.12;40.38